Home   Weather   USA   Gainesville   Past weeks
Flag for USA

Past Weather in Gainesville, Florida, USA — Yesterday and Last 2 Weeks

Currently: 87 °F. Broken clouds. (Weather station: Gainesville Regional Airport, USA). See more current weather

Past Weather in Gainesville — Graph

°F

Gainesville Temperature Yesterday

Maximum temperature yesterday: 86 °F (at 3:53 pm)
Minimum temperature yesterday: 61 °F (at 1:53 am)
Average temperature yesterday: 73 °F

High & Low Weather Summary for the Past Weeks

 TemperatureHumidityPressure
High93 °F (May 8, 3:53 pm)100% (May 8, 2:53 am)30.07 "Hg (May 8, 2:53 am)
Low59 °F (May 12, 5:53 am)35% (May 11, 4:53 pm)29.78 "Hg (May 10, 4:53 pm)
Average76 °F80%29.92 "Hg
* Reported May 7 2:53 pm — May 22 2:53 pm, Gainesville. Weather by CustomWeather, © 2024

Note: Actual official high and low records may vary slightly from our data, if they occured in-between our weather recording intervals... More about our weather records

Gainesville Weather History for the Previous 24 Hours

Scroll right to see more
 ConditionsComfort  
Time TempWeatherWind HumidityBarometerVisibility
2:53 pm
Wed, May 22
87 °FBroken clouds.8 mph55%30.02 "Hg10 mi
1:53 pm85 °FBroken clouds.8 mph57%30.04 "Hg10 mi
12:53 pm84 °FPassing clouds.5 mph61%30.06 "Hg10 mi
11:53 am83 °FBroken clouds.7 mph63%30.06 "Hg10 mi
10:53 am81 °FSunny.9 mph67%30.06 "Hg10 mi
9:53 am78 °FScattered clouds.9 mph76%30.06 "Hg10 mi
9:14 am75 °FBroken clouds.3 mph90%30.07 "Hg10 mi
9:01 am74 °FPartly sunny.No wind94%30.06 "Hg10 mi
8:30 am71 °FFog.3 mph100%30.05 "Hg3 mi
8:21 am70 °FFog.3 mph100%30.05 "Hg1 mi
7:53 am70 °FFog.5 mph100%30.03 "Hg1 mi
6:53 am69 °FFog.5 mph100%30.02 "Hg0 mi
6:26 am69 °FFog.5 mph100%30.02 "Hg0 mi
5:53 am69 °FFog.3 mph100%30.00 "Hg1 mi
5:23 am69 °FFog.3 mph100%30.01 "Hg1 mi
4:53 am69 °FFog.3 mph100%30.01 "Hg2 mi
4:11 am69 °FFog.No wind100%30.01 "Hg0 mi
4:02 am69 °FFog.No wind100%30.01 "Hg1 mi
2:53 am69 °FLow clouds.3 mph100%30.00 "Hg10 mi
1:53 am68 °FLow clouds.5 mph100%29.99 "Hg10 mi
12:53 am67 °FClear.No wind100%30.00 "Hg10 mi
11:53 pm
Tue, May 21
69 °FClear.3 mph100%30.00 "Hg10 mi
10:53 pm70 °FClear.6 mph97%29.99 "Hg10 mi
9:53 pm71 °FClear.6 mph93%29.99 "Hg10 mi
8:53 pm73 °FClear.10 mph84%29.98 "Hg10 mi
7:53 pm75 °FSunny.12 mph79%29.98 "Hg10 mi
6:53 pm80 °FSunny.15 mph64%29.96 "Hg10 mi
5:53 pm80 °FBroken clouds.13 mph64%29.95 "Hg10 mi
4:53 pm84 °FBroken clouds.7 mph53%29.93 "Hg10 mi
Weather by CustomWeather, © 2024

See weather overview